sensor_id;sensor_type;location;lat;lon;timestamp;temperature;humidity
6375;DHT22;35400;45.472;-122.822;2022-10-26T00:01:14;11.40;99.90
6375;DHT22;35400;45.472;-122.822;2022-10-26T00:03:42;11.40;99.90
6375;DHT22;35400;45.472;-122.822;2022-10-26T00:06:12;11.30;99.90
6375;DHT22;35400;45.472;-122.822;2022-10-26T00:08:40;11.30;99.90
6375;DHT22;35400;45.472;-122.822;2022-10-26T00:11:07;11.30;99.90
6375;DHT22;35400;45.472;-122.822;2022-10-26T00:13:35;11.20;99.90
6375;DHT22;35400;45.472;-122.822;2022-10-26T00:16:28;11.20;99.90
6375;DHT22;35400;45.472;-122.822;2022-10-26T00:18:54;11.20;99.90
6375;DHT22;35400;45.472;-122.822;2022-10-26T00:21:23;11.20;99.90
6375;DHT22;35400;45.472;-122.822;2022-10-26T00:23:50;11.10;99.90
6375;DHT22;35400;45.472;-122.822;2022-10-26T00:26:16;11.10;99.90
6375;DHT22;35400;45.472;-122.822;2022-10-26T00:28:43;11.10;99.90
6375;DHT22;35400;45.472;-122.822;2022-10-26T00:31:14;11.10;99.90
6375;DHT22;35400;45.472;-122.822;2022-10-26T00:33:41;11.10;99.90
6375;DHT22;35400;45.472;-122.822;2022-10-26T00:36:09;11.00;99.90
6375;DHT22;35400;45.472;-122.822;2022-10-26T00:38:36;11.00;99.90
6375;DHT22;35400;45.472;-122.822;2022-10-26T00:41:04;11.00;99.90
6375;DHT22;35400;45.472;-122.822;2022-10-26T00:45:58;10.90;99.90
6375;DHT22;35400;45.472;-122.822;2022-10-26T00:48:40;10.80;99.90
6375;DHT22;35400;45.472;-122.822;2022-10-26T00:51:30;10.80;99.90
6375;DHT22;35400;45.472;-122.822;2022-10-26T00:54:03;10.70;99.90
6375;DHT22;35400;45.472;-122.822;2022-10-26T00:56:31;10.70;99.90
6375;DHT22;35400;45.472;-122.822;2022-10-26T00:59:02;10.70;99.90
6375;DHT22;35400;45.472;-122.822;2022-10-26T01:01:31;10.70;99.90
6375;DHT22;35400;45.472;-122.822;2022-10-26T01:04:00;10.60;99.90
6375;DHT22;35400;45.472;-122.822;2022-10-26T01:06:31;10.60;99.90
6375;DHT22;35400;45.472;-122.822;2022-10-26T01:08:59;10.60;99.90
6375;DHT22;35400;45.472;-122.822;2022-10-26T01:11:26;10.50;99.90
6375;DHT22;35400;45.472;-122.822;2022-10-26T01:13:53;10.50;99.90
6375;DHT22;35400;45.472;-122.822;2022-10-26T01:24:49;10.40;99.90
6375;DHT22;35400;45.472;-122.822;2022-10-26T01:27:31;10.40;99.90
6375;DHT22;35400;45.472;-122.822;2022-10-26T01:38:28;10.20;99.90
6375;DHT22;35400;45.472;-122.822;2022-10-26T01:40:58;10.20;99.90
6375;DHT22;35400;45.472;-122.822;2022-10-26T01:43:33;10.10;99.90
6375;DHT22;35400;45.472;-122.822;2022-10-26T01:46:03;10.10;99.90
6375;DHT22;35400;45.472;-122.822;2022-10-26T01:48:32;10.00;99.90
6375;DHT22;35400;45.472;-122.822;2022-10-26T01:51:00;9.90;99.90
6375;DHT22;35400;45.472;-122.822;2022-10-26T01:53:28;9.90;99.90
6375;DHT22;35400;45.472;-122.822;2022-10-26T01:55:56;9.80;99.90
6375;DHT22;35400;45.472;-122.822;2022-10-26T02:01:43;9.70;99.90
6375;DHT22;35400;45.472;-122.822;2022-10-26T02:04:35;9.70;99.90
6375;DHT22;35400;45.472;-122.822;2022-10-26T02:15:14;9.50;99.90
6375;DHT22;35400;45.472;-122.822;2022-10-26T02:17:52;9.40;99.90
6375;DHT22;35400;45.472;-122.822;2022-10-26T02:20:32;9.40;99.90
6375;DHT22;35400;45.472;-122.822;2022-10-26T02:23:03;9.30;99.90
6375;DHT22;35400;45.472;-122.822;2022-10-26T02:25:34;9.30;99.90
6375;DHT22;35400;45.472;-122.822;2022-10-26T02:28:06;9.20;99.90
6375;DHT22;35400;45.472;-122.822;2022-10-26T02:30:34;9.20;99.90
6375;DHT22;35400;45.472;-122.822;2022-10-26T02:33:04;9.20;99.90
6375;DHT22;35400;45.472;-122.822;2022-10-26T02:35:34;9.10;99.90
6375;DHT22;35400;45.472;-122.822;2022-10-26T02:38:07;9.10;99.90
6375;DHT22;35400;45.472;-122.822;2022-10-26T02:40:36;9.10;99.90
6375;DHT22;35400;45.472;-122.822;2022-10-26T02:43:08;9.00;99.90
6375;DHT22;35400;45.472;-122.822;2022-10-26T02:46:04;9.00;99.90
6375;DHT22;35400;45.472;-122.822;2022-10-26T02:48:32;9.00;99.90
6375;DHT22;35400;45.472;-122.822;2022-10-26T02:51:24;8.90;99.90
6375;DHT22;35400;45.472;-122.822;2022-10-26T02:54:20;8.90;99.90
6375;DHT22;35400;45.472;-122.822;2022-10-26T02:59:14;8.80;99.90
6375;DHT22;35400;45.472;-122.822;2022-10-26T03:01:42;8.80;99.90
6375;DHT22;35400;45.472;-122.822;2022-10-26T03:04:09;8.80;99.90
6375;DHT22;35400;45.472;-122.822;2022-10-26T03:06:36;8.70;99.90
6375;DHT22;35400;45.472;-122.822;2022-10-26T03:09:03;8.70;99.90
6375;DHT22;35400;45.472;-122.822;2022-10-26T03:11:30;8.70;99.90
6375;DHT22;35400;45.472;-122.822;2022-10-26T03:13:57;8.70;99.90
6375;DHT22;35400;45.472;-122.822;2022-10-26T03:16:23;8.60;99.90
6375;DHT22;35400;45.472;-122.822;2022-10-26T03:18:50;8.60;99.90
6375;DHT22;35400;45.472;-122.822;2022-10-26T03:21:17;8.50;99.90
6375;DHT22;35400;45.472;-122.822;2022-10-26T03:23:44;8.60;99.90
6375;DHT22;35400;45.472;-122.822;2022-10-26T03:26:13;8.60;99.90
6375;DHT22;35400;45.472;-122.822;2022-10-26T03:28:39;8.50;99.90
6375;DHT22;35400;45.472;-122.822;2022-10-26T03:31:06;8.50;99.90
6375;DHT22;35400;45.472;-122.822;2022-10-26T03:33:33;8.50;99.90
6375;DHT22;35400;45.472;-122.822;2022-10-26T03:36:00;8.50;99.90
6375;DHT22;35400;45.472;-122.822;2022-10-26T03:38:27;8.40;99.90
6375;DHT22;35400;45.472;-122.822;2022-10-26T03:40:53;8.40;99.90
6375;DHT22;35400;45.472;-122.822;2022-10-26T03:43:20;8.40;99.90
6375;DHT22;35400;45.472;-122.822;2022-10-26T03:45:47;8.30;99.90
6375;DHT22;35400;45.472;-122.822;2022-10-26T03:48:14;8.30;99.90
6375;DHT22;35400;45.472;-122.822;2022-10-26T03:50:41;8.30;99.90
6375;DHT22;35400;45.472;-122.822;2022-10-26T03:53:08;8.30;99.90
6375;DHT22;35400;45.472;-122.822;2022-10-26T03:55:35;8.30;99.90
6375;DHT22;35400;45.472;-122.822;2022-10-26T03:58:02;8.30;99.90
6375;DHT22;35400;45.472;-122.822;2022-10-26T04:00:28;8.20;99.90
6375;DHT22;35400;45.472;-122.822;2022-10-26T04:02:57;8.20;99.90
6375;DHT22;35400;45.472;-122.822;2022-10-26T04:05:26;8.20;99.90
6375;DHT22;35400;45.472;-122.822;2022-10-26T04:07:58;8.20;99.90
6375;DHT22;35400;45.472;-122.822;2022-10-26T04:10:26;8.20;99.90
6375;DHT22;35400;45.472;-122.822;2022-10-26T04:12:53;8.20;99.90
6375;DHT22;35400;45.472;-122.822;2022-10-26T04:15:21;8.10;99.90
6375;DHT22;35400;45.472;-122.822;2022-10-26T04:17:57;8.10;99.90
6375;DHT22;35400;45.472;-122.822;2022-10-26T04:20:25;8.10;99.90
6375;DHT22;35400;45.472;-122.822;2022-10-26T04:23:03;8.10;99.90
6375;DHT22;35400;45.472;-122.822;2022-10-26T04:25:31;8.10;99.90
6375;DHT22;35400;45.472;-122.822;2022-10-26T04:28:02;8.10;99.90
6375;DHT22;35400;45.472;-122.822;2022-10-26T04:30:30;8.10;99.90
6375;DHT22;35400;45.472;-122.822;2022-10-26T04:32:57;8.00;99.90
6375;DHT22;35400;45.472;-122.822;2022-10-26T04:35:24;8.10;99.90
6375;DHT22;35400;45.472;-122.822;2022-10-26T04:37:51;8.00;99.90
6375;DHT22;35400;45.472;-122.822;2022-10-26T04:40:22;8.00;99.90
6375;DHT22;35400;45.472;-122.822;2022-10-26T04:42:48;8.00;99.90
6375;DHT22;35400;45.472;-122.822;2022-10-26T04:45:15;8.00;99.90
6375;DHT22;35400;45.472;-122.822;2022-10-26T04:47:42;8.00;99.90
6375;DHT22;35400;45.472;-122.822;2022-10-26T04:50:10;8.00;99.90
6375;DHT22;35400;45.472;-122.822;2022-10-26T04:52:38;8.00;99.90
6375;DHT22;35400;45.472;-122.822;2022-10-26T04:55:05;8.00;99.90
6375;DHT22;35400;45.472;-122.822;2022-10-26T04:57:33;8.00;99.90
6375;DHT22;35400;45.472;-122.822;2022-10-26T05:00:02;8.00;99.90
6375;DHT22;35400;45.472;-122.822;2022-10-26T05:02:29;8.00;99.90
6375;DHT22;35400;45.472;-122.822;2022-10-26T05:04:56;8.00;99.90
6375;DHT22;35400;45.472;-122.822;2022-10-26T05:07:23;7.90;99.90
6375;DHT22;35400;45.472;-122.822;2022-10-26T05:09:50;7.90;99.90
6375;DHT22;35400;45.472;-122.822;2022-10-26T05:12:16;7.90;99.90
6375;DHT22;35400;45.472;-122.822;2022-10-26T05:14:43;7.90;99.90
6375;DHT22;35400;45.472;-122.822;2022-10-26T05:17:10;7.80;99.90
6375;DHT22;35400;45.472;-122.822;2022-10-26T05:19:37;7.80;99.90
6375;DHT22;35400;45.472;-122.822;2022-10-26T05:22:04;7.80;99.90
6375;DHT22;35400;45.472;-122.822;2022-10-26T05:24:31;7.70;99.90
6375;DHT22;35400;45.472;-122.822;2022-10-26T05:26:58;7.70;99.90
6375;DHT22;35400;45.472;-122.822;2022-10-26T05:29:25;7.70;99.90
6375;DHT22;35400;45.472;-122.822;2022-10-26T05:31:52;7.70;99.90
6375;DHT22;35400;45.472;-122.822;2022-10-26T05:34:18;7.60;99.90
6375;DHT22;35400;45.472;-122.822;2022-10-26T05:36:45;7.60;99.90
6375;DHT22;35400;45.472;-122.822;2022-10-26T05:39:12;7.60;99.90
6375;DHT22;35400;45.472;-122.822;2022-10-26T05:41:38;7.60;99.90
6375;DHT22;35400;45.472;-122.822;2022-10-26T05:44:05;7.50;99.90
6375;DHT22;35400;45.472;-122.822;2022-10-26T05:46:32;7.50;99.90
6375;DHT22;35400;45.472;-122.822;2022-10-26T05:48:59;7.50;99.90
6375;DHT22;35400;45.472;-122.822;2022-10-26T05:51:25;7.40;99.90
6375;DHT22;35400;45.472;-122.822;2022-10-26T05:53:52;7.40;99.90
6375;DHT22;35400;45.472;-122.822;2022-10-26T05:56:34;7.40;99.90
6375;DHT22;35400;45.472;-122.822;2022-10-26T05:59:03;7.30;99.90
6375;DHT22;35400;45.472;-122.822;2022-10-26T06:01:36;7.30;99.90
6375;DHT22;35400;45.472;-122.822;2022-10-26T06:04:37;7.30;99.90
6375;DHT22;35400;45.472;-122.822;2022-10-26T06:07:16;7.30;99.90
6375;DHT22;35400;45.472;-122.822;2022-10-26T06:09:43;7.30;99.90
6375;DHT22;35400;45.472;-122.822;2022-10-26T06:12:11;7.30;99.90
6375;DHT22;35400;45.472;-122.822;2022-10-26T06:14:38;7.30;99.90
6375;DHT22;35400;45.472;-122.822;2022-10-26T06:31:00;7.40;99.90
6375;DHT22;35400;45.472;-122.822;2022-10-26T06:33:28;7.40;99.90
6375;DHT22;35400;45.472;-122.822;2022-10-26T06:39:03;7.40;99.90
6375;DHT22;35400;45.472;-122.822;2022-10-26T06:41:32;7.40;99.90
6375;DHT22;35400;45.472;-122.822;2022-10-26T06:43:59;7.50;99.90
6375;DHT22;35400;45.472;-122.822;2022-10-26T06:57:19;7.50;99.90
6375;DHT22;35400;45.472;-122.822;2022-10-26T06:59:52;7.50;99.90
6375;DHT22;35400;45.472;-122.822;2022-10-26T07:02:20;7.50;99.90
6375;DHT22;35400;45.472;-122.822;2022-10-26T07:04:46;7.50;99.90
6375;DHT22;35400;45.472;-122.822;2022-10-26T07:07:20;7.50;99.90
6375;DHT22;35400;45.472;-122.822;2022-10-26T07:09:48;7.50;99.90
6375;DHT22;35400;45.472;-122.822;2022-10-26T07:12:15;7.50;99.90
6375;DHT22;35400;45.472;-122.822;2022-10-26T07:14:42;7.50;99.90
6375;DHT22;35400;45.472;-122.822;2022-10-26T07:17:13;7.50;99.90
6375;DHT22;35400;45.472;-122.822;2022-10-26T07:19:40;7.50;99.90
6375;DHT22;35400;45.472;-122.822;2022-10-26T07:22:09;7.50;99.90
6375;DHT22;35400;45.472;-122.822;2022-10-26T07:24:36;7.50;99.90
6375;DHT22;35400;45.472;-122.822;2022-10-26T07:27:03;7.40;99.90
6375;DHT22;35400;45.472;-122.822;2022-10-26T07:29:30;7.40;99.90
6375;DHT22;35400;45.472;-122.822;2022-10-26T07:31:57;7.40;99.90
6375;DHT22;35400;45.472;-122.822;2022-10-26T07:34:23;7.40;99.90
6375;DHT22;35400;45.472;-122.822;2022-10-26T07:36:50;7.40;99.90
6375;DHT22;35400;45.472;-122.822;2022-10-26T07:39:17;7.40;99.90
6375;DHT22;35400;45.472;-122.822;2022-10-26T07:41:45;7.30;99.90
6375;DHT22;35400;45.472;-122.822;2022-10-26T07:44:12;7.30;99.90
6375;DHT22;35400;45.472;-122.822;2022-10-26T07:46:39;7.30;99.90
6375;DHT22;35400;45.472;-122.822;2022-10-26T07:49:06;7.30;99.90
6375;DHT22;35400;45.472;-122.822;2022-10-26T07:51:33;7.20;99.90
6375;DHT22;35400;45.472;-122.822;2022-10-26T07:53:59;7.20;99.90
6375;DHT22;35400;45.472;-122.822;2022-10-26T07:56:26;7.20;99.90
6375;DHT22;35400;45.472;-122.822;2022-10-26T07:58:54;7.20;99.90
6375;DHT22;35400;45.472;-122.822;2022-10-26T08:01:21;7.20;99.90
6375;DHT22;35400;45.472;-122.822;2022-10-26T08:03:51;7.20;99.90
6375;DHT22;35400;45.472;-122.822;2022-10-26T08:06:22;7.20;99.90
6375;DHT22;35400;45.472;-122.822;2022-10-26T08:08:49;7.20;99.90
6375;DHT22;35400;45.472;-122.822;2022-10-26T08:11:17;7.20;99.90
6375;DHT22;35400;45.472;-122.822;2022-10-26T08:13:44;7.10;99.90
6375;DHT22;35400;45.472;-122.822;2022-10-26T08:16:10;7.10;99.90
6375;DHT22;35400;45.472;-122.822;2022-10-26T08:18:37;7.10;99.90
6375;DHT22;35400;45.472;-122.822;2022-10-26T08:21:06;7.10;99.90
6375;DHT22;35400;45.472;-122.822;2022-10-26T08:23:35;7.10;99.90
6375;DHT22;35400;45.472;-122.822;2022-10-26T08:26:02;7.10;99.90
6375;DHT22;35400;45.472;-122.822;2022-10-26T08:28:29;7.10;99.90
6375;DHT22;35400;45.472;-122.822;2022-10-26T08:30:57;7.10;99.90
6375;DHT22;35400;45.472;-122.822;2022-10-26T08:33:24;7.10;99.90
6375;DHT22;35400;45.472;-122.822;2022-10-26T08:35:59;7.10;99.90
6375;DHT22;35400;45.472;-122.822;2022-10-26T08:38:26;7.10;99.90
6375;DHT22;35400;45.472;-122.822;2022-10-26T08:40:53;7.10;99.90
6375;DHT22;35400;45.472;-122.822;2022-10-26T08:43:41;7.10;99.90
6375;DHT22;35400;45.472;-122.822;2022-10-26T08:48:53;7.20;99.90
6375;DHT22;35400;45.472;-122.822;2022-10-26T08:51:25;7.20;99.90
6375;DHT22;35400;45.472;-122.822;2022-10-26T08:54:26;7.20;99.90
6375;DHT22;35400;45.472;-122.822;2022-10-26T08:56:54;7.30;99.90
6375;DHT22;35400;45.472;-122.822;2022-10-26T08:59:39;7.30;99.90
6375;DHT22;35400;45.472;-122.822;2022-10-26T09:02:12;7.30;99.90
6375;DHT22;35400;45.472;-122.822;2022-10-26T09:04:40;7.30;99.90
6375;DHT22;35400;45.472;-122.822;2022-10-26T09:10:32;7.30;99.90
6375;DHT22;35400;45.472;-122.822;2022-10-26T09:29:31;7.30;99.90
6375;DHT22;35400;45.472;-122.822;2022-10-26T09:32:00;7.30;99.90
6375;DHT22;35400;45.472;-122.822;2022-10-26T09:34:38;7.30;99.90
6375;DHT22;35400;45.472;-122.822;2022-10-26T09:37:43;7.30;99.90
6375;DHT22;35400;45.472;-122.822;2022-10-26T09:43:41;7.20;99.90
6375;DHT22;35400;45.472;-122.822;2022-10-26T09:46:04;7.20;99.90
6375;DHT22;35400;45.472;-122.822;2022-10-26T09:48:49;7.20;99.90
6375;DHT22;35400;45.472;-122.822;2022-10-26T09:51:17;7.30;99.90
6375;DHT22;35400;45.472;-122.822;2022-10-26T09:53:44;7.30;99.90
6375;DHT22;35400;45.472;-122.822;2022-10-26T09:56:13;7.30;99.90
6375;DHT22;35400;45.472;-122.822;2022-10-26T09:58:45;7.30;99.90
6375;DHT22;35400;45.472;-122.822;2022-10-26T10:01:43;7.30;99.90
6375;DHT22;35400;45.472;-122.822;2022-10-26T10:06:40;7.30;99.90
6375;DHT22;35400;45.472;-122.822;2022-10-26T10:11:43;7.40;99.90
6375;DHT22;35400;45.472;-122.822;2022-10-26T10:14:16;7.40;99.90
6375;DHT22;35400;45.472;-122.822;2022-10-26T10:21:55;7.40;99.90
6375;DHT22;35400;45.472;-122.822;2022-10-26T10:24:30;7.40;99.90
6375;DHT22;35400;45.472;-122.822;2022-10-26T10:27:00;7.40;99.90
6375;DHT22;35400;45.472;-122.822;2022-10-26T10:29:30;7.40;99.90
6375;DHT22;35400;45.472;-122.822;2022-10-26T10:32:00;7.50;99.90
6375;DHT22;35400;45.472;-122.822;2022-10-26T10:34:29;7.50;99.90
6375;DHT22;35400;45.472;-122.822;2022-10-26T10:36:57;7.50;99.90
6375;DHT22;35400;45.472;-122.822;2022-10-26T10:39:36;7.50;99.90
6375;DHT22;35400;45.472;-122.822;2022-10-26T10:42:28;7.50;99.90
6375;DHT22;35400;45.472;-122.822;2022-10-26T10:44:54;7.40;99.90
6375;DHT22;35400;45.472;-122.822;2022-10-26T10:47:23;7.40;99.90
6375;DHT22;35400;45.472;-122.822;2022-10-26T10:49:54;7.40;99.90
6375;DHT22;35400;45.472;-122.822;2022-10-26T10:52:33;7.40;99.90
6375;DHT22;35400;45.472;-122.822;2022-10-26T10:58:04;7.40;99.90
6375;DHT22;35400;45.472;-122.822;2022-10-26T11:00:36;7.40;99.90
6375;DHT22;35400;45.472;-122.822;2022-10-26T11:06:17;7.30;99.90
6375;DHT22;35400;45.472;-122.822;2022-10-26T11:11:52;7.30;99.90
6375;DHT22;35400;45.472;-122.822;2022-10-26T11:14:34;7.30;99.90
6375;DHT22;35400;45.472;-122.822;2022-10-26T11:17:17;7.30;99.90
6375;DHT22;35400;45.472;-122.822;2022-10-26T11:23:03;7.20;99.90
6375;DHT22;35400;45.472;-122.822;2022-10-26T11:28:45;7.20;99.90
6375;DHT22;35400;45.472;-122.822;2022-10-26T11:30:59;7.20;99.90
6375;DHT22;35400;45.472;-122.822;2022-10-26T11:33:34;7.20;99.90
6375;DHT22;35400;45.472;-122.822;2022-10-26T11:36:08;7.20;99.90
6375;DHT22;35400;45.472;-122.822;2022-10-26T11:43:54;7.20;99.90
6375;DHT22;35400;45.472;-122.822;2022-10-26T11:46:27;7.20;99.90
6375;DHT22;35400;45.472;-122.822;2022-10-26T11:49:22;7.20;99.90
6375;DHT22;35400;45.472;-122.822;2022-10-26T11:52:21;7.20;99.90
6375;DHT22;35400;45.472;-122.822;2022-10-26T11:54:56;7.20;99.90
6375;DHT22;35400;45.472;-122.822;2022-10-26T11:57:25;7.20;99.90
6375;DHT22;35400;45.472;-122.822;2022-10-26T12:02:40;7.20;99.90
6375;DHT22;35400;45.472;-122.822;2022-10-26T12:08:02;7.20;99.90
6375;DHT22;35400;45.472;-122.822;2022-10-26T12:10:36;7.20;99.90
6375;DHT22;35400;45.472;-122.822;2022-10-26T12:13:26;7.20;99.90
6375;DHT22;35400;45.472;-122.822;2022-10-26T12:18:42;7.20;99.90
6375;DHT22;35400;45.472;-122.822;2022-10-26T12:21:11;7.10;99.90
6375;DHT22;35400;45.472;-122.822;2022-10-26T12:23:56;7.20;99.90
6375;DHT22;35400;45.472;-122.822;2022-10-26T12:39:32;7.20;99.90
6375;DHT22;35400;45.472;-122.822;2022-10-26T12:44:35;7.20;99.90
6375;DHT22;35400;45.472;-122.822;2022-10-26T12:47:03;7.20;99.90
6375;DHT22;35400;45.472;-122.822;2022-10-26T12:52:47;7.20;99.90
6375;DHT22;35400;45.472;-122.822;2022-10-26T12:58:45;7.20;99.90
6375;DHT22;35400;45.472;-122.822;2022-10-26T13:03:59;7.10;99.90
6375;DHT22;35400;45.472;-122.822;2022-10-26T13:09:28;7.20;99.90
6375;DHT22;35400;45.472;-122.822;2022-10-26T13:11:56;7.20;99.90
6375;DHT22;35400;45.472;-122.822;2022-10-26T13:14:27;7.20;99.90
6375;DHT22;35400;45.472;-122.822;2022-10-26T13:16:58;7.20;99.90
6375;DHT22;35400;45.472;-122.822;2022-10-26T13:22:02;7.20;99.90
6375;DHT22;35400;45.472;-122.822;2022-10-26T13:24:31;7.20;99.90
6375;DHT22;35400;45.472;-122.822;2022-10-26T13:32:31;7.20;99.90
6375;DHT22;35400;45.472;-122.822;2022-10-26T13:35:00;7.20;99.90
6375;DHT22;35400;45.472;-122.822;2022-10-26T13:37:30;7.30;99.90
6375;DHT22;35400;45.472;-122.822;2022-10-26T13:39:58;7.30;99.90
6375;DHT22;35400;45.472;-122.822;2022-10-26T13:42:49;7.30;99.90
6375;DHT22;35400;45.472;-122.822;2022-10-26T13:45:18;7.30;99.90
6375;DHT22;35400;45.472;-122.822;2022-10-26T13:48:12;7.30;99.90
6375;DHT22;35400;45.472;-122.822;2022-10-26T13:56:05;7.30;99.90
6375;DHT22;35400;45.472;-122.822;2022-10-26T13:58:33;7.30;99.90
6375;DHT22;35400;45.472;-122.822;2022-10-26T14:01:15;7.40;99.90
6375;DHT22;35400;45.472;-122.822;2022-10-26T14:03:43;7.40;99.90
6375;DHT22;35400;45.472;-122.822;2022-10-26T14:06:21;7.40;99.90
6375;DHT22;35400;45.472;-122.822;2022-10-26T14:08:50;7.40;99.90
6375;DHT22;35400;45.472;-122.822;2022-10-26T14:11:20;7.40;99.90
6375;DHT22;35400;45.472;-122.822;2022-10-26T14:13:49;7.40;99.90
6375;DHT22;35400;45.472;-122.822;2022-10-26T14:16:17;7.40;99.90
6375;DHT22;35400;45.472;-122.822;2022-10-26T14:18:47;7.40;99.90
6375;DHT22;35400;45.472;-122.822;2022-10-26T14:21:20;7.40;99.90
6375;DHT22;35400;45.472;-122.822;2022-10-26T14:23:58;7.30;99.90
6375;DHT22;35400;45.472;-122.822;2022-10-26T14:26:28;7.30;99.90
6375;DHT22;35400;45.472;-122.822;2022-10-26T14:28:57;7.30;99.90
6375;DHT22;35400;45.472;-122.822;2022-10-26T14:31:27;7.30;99.90
6375;DHT22;35400;45.472;-122.822;2022-10-26T14:33:56;7.20;99.90
6375;DHT22;35400;45.472;-122.822;2022-10-26T14:36:50;7.20;99.90
6375;DHT22;35400;45.472;-122.822;2022-10-26T14:42:00;7.20;99.90
6375;DHT22;35400;45.472;-122.822;2022-10-26T14:44:28;7.10;99.90
6375;DHT22;35400;45.472;-122.822;2022-10-26T14:46:55;7.10;99.90
6375;DHT22;35400;45.472;-122.822;2022-10-26T14:49:24;7.00;99.90
6375;DHT22;35400;45.472;-122.822;2022-10-26T14:52:03;7.00;99.90
6375;DHT22;35400;45.472;-122.822;2022-10-26T14:54:30;7.00;99.90
6375;DHT22;35400;45.472;-122.822;2022-10-26T14:56:58;7.00;99.90
6375;DHT22;35400;45.472;-122.822;2022-10-26T14:59:33;6.90;99.90
6375;DHT22;35400;45.472;-122.822;2022-10-26T15:02:18;6.90;99.90
6375;DHT22;35400;45.472;-122.822;2022-10-26T15:05:01;6.90;99.90
6375;DHT22;35400;45.472;-122.822;2022-10-26T15:07:36;6.90;99.90
6375;DHT22;35400;45.472;-122.822;2022-10-26T15:10:04;7.00;99.90
6375;DHT22;35400;45.472;-122.822;2022-10-26T15:12:33;7.00;99.90
6375;DHT22;35400;45.472;-122.822;2022-10-26T15:15:20;7.10;99.90
6375;DHT22;35400;45.472;-122.822;2022-10-26T15:17:55;7.10;99.90
6375;DHT22;35400;45.472;-122.822;2022-10-26T15:20:24;7.20;99.90
6375;DHT22;35400;45.472;-122.822;2022-10-26T15:22:55;7.20;99.90
6375;DHT22;35400;45.472;-122.822;2022-10-26T15:25:27;7.20;99.90
6375;DHT22;35400;45.472;-122.822;2022-10-26T15:28:11;7.30;99.90
6375;DHT22;35400;45.472;-122.822;2022-10-26T15:33:30;7.30;99.90
6375;DHT22;35400;45.472;-122.822;2022-10-26T15:38:41;7.40;99.90
6375;DHT22;35400;45.472;-122.822;2022-10-26T15:41:15;7.40;99.90
6375;DHT22;35400;45.472;-122.822;2022-10-26T15:43:47;7.40;99.90
6375;DHT22;35400;45.472;-122.822;2022-10-26T15:46:14;7.40;99.90
6375;DHT22;35400;45.472;-122.822;2022-10-26T15:48:41;7.40;99.90
6375;DHT22;35400;45.472;-122.822;2022-10-26T15:51:12;7.50;99.90
6375;DHT22;35400;45.472;-122.822;2022-10-26T15:53:39;7.50;99.90
6375;DHT22;35400;45.472;-122.822;2022-10-26T15:56:26;7.50;99.90
6375;DHT22;35400;45.472;-122.822;2022-10-26T15:58:56;7.50;99.90
6375;DHT22;35400;45.472;-122.822;2022-10-26T16:01:25;7.60;99.90
6375;DHT22;35400;45.472;-122.822;2022-10-26T16:03:52;7.60;99.90
6375;DHT22;35400;45.472;-122.822;2022-10-26T16:06:30;7.60;99.90
6375;DHT22;35400;45.472;-122.822;2022-10-26T16:09:00;7.70;99.90
6375;DHT22;35400;45.472;-122.822;2022-10-26T16:11:28;7.70;99.90
6375;DHT22;35400;45.472;-122.822;2022-10-26T16:13:55;7.80;99.90
6375;DHT22;35400;45.472;-122.822;2022-10-26T16:16:22;7.80;99.90
6375;DHT22;35400;45.472;-122.822;2022-10-26T16:18:52;7.90;99.90
6375;DHT22;35400;45.472;-122.822;2022-10-26T16:21:21;8.00;99.90
6375;DHT22;35400;45.472;-122.822;2022-10-26T16:23:51;8.00;99.90
6375;DHT22;35400;45.472;-122.822;2022-10-26T16:26:18;8.10;99.90
6375;DHT22;35400;45.472;-122.822;2022-10-26T16:28:45;8.10;99.90
6375;DHT22;35400;45.472;-122.822;2022-10-26T16:31:17;8.20;99.90
6375;DHT22;35400;45.472;-122.822;2022-10-26T16:33:44;8.20;99.90
6375;DHT22;35400;45.472;-122.822;2022-10-26T16:36:11;8.30;99.90
6375;DHT22;35400;45.472;-122.822;2022-10-26T16:38:39;8.40;99.90
6375;DHT22;35400;45.472;-122.822;2022-10-26T16:41:08;8.50;99.90
6375;DHT22;35400;45.472;-122.822;2022-10-26T16:43:39;8.50;99.90
6375;DHT22;35400;45.472;-122.822;2022-10-26T16:46:07;8.60;99.90
6375;DHT22;35400;45.472;-122.822;2022-10-26T16:48:36;8.80;99.90
6375;DHT22;35400;45.472;-122.822;2022-10-26T16:51:24;8.90;99.90
6375;DHT22;35400;45.472;-122.822;2022-10-26T16:53:55;9.10;99.90
6375;DHT22;35400;45.472;-122.822;2022-10-26T16:56:24;9.20;99.90
6375;DHT22;35400;45.472;-122.822;2022-10-26T16:58:51;9.30;99.90
6375;DHT22;35400;45.472;-122.822;2022-10-26T17:01:19;9.30;99.90
6375;DHT22;35400;45.472;-122.822;2022-10-26T17:03:48;9.40;99.90
6375;DHT22;35400;45.472;-122.822;2022-10-26T17:06:15;9.50;99.90
6375;DHT22;35400;45.472;-122.822;2022-10-26T17:08:42;9.60;99.90
6375;DHT22;35400;45.472;-122.822;2022-10-26T17:11:15;9.60;99.90
6375;DHT22;35400;45.472;-122.822;2022-10-26T17:13:42;9.70;99.90
6375;DHT22;35400;45.472;-122.822;2022-10-26T17:16:15;9.80;99.90
6375;DHT22;35400;45.472;-122.822;2022-10-26T17:18:43;9.90;99.90
6375;DHT22;35400;45.472;-122.822;2022-10-26T17:21:11;9.90;99.90
6375;DHT22;35400;45.472;-122.822;2022-10-26T17:23:38;10.00;99.90
6375;DHT22;35400;45.472;-122.822;2022-10-26T17:26:07;10.10;99.90
6375;DHT22;35400;45.472;-122.822;2022-10-26T17:28:35;10.10;99.90
6375;DHT22;35400;45.472;-122.822;2022-10-26T17:31:10;10.20;99.90
6375;DHT22;35400;45.472;-122.822;2022-10-26T17:33:40;10.20;99.90
6375;DHT22;35400;45.472;-122.822;2022-10-26T17:36:13;10.30;99.90
6375;DHT22;35400;45.472;-122.822;2022-10-26T17:38:42;10.40;99.90
6375;DHT22;35400;45.472;-122.822;2022-10-26T17:41:11;10.40;99.90
6375;DHT22;35400;45.472;-122.822;2022-10-26T17:43:40;10.50;99.90
6375;DHT22;35400;45.472;-122.822;2022-10-26T17:46:11;10.50;99.90
6375;DHT22;35400;45.472;-122.822;2022-10-26T17:48:38;10.60;99.90
6375;DHT22;35400;45.472;-122.822;2022-10-26T17:51:07;10.60;99.90
6375;DHT22;35400;45.472;-122.822;2022-10-26T17:53:35;10.70;99.90
6375;DHT22;35400;45.472;-122.822;2022-10-26T17:56:10;10.80;99.90
6375;DHT22;35400;45.472;-122.822;2022-10-26T17:58:37;10.90;99.90
6375;DHT22;35400;45.472;-122.822;2022-10-26T18:01:10;11.00;99.90
6375;DHT22;35400;45.472;-122.822;2022-10-26T18:03:38;11.20;99.90
6375;DHT22;35400;45.472;-122.822;2022-10-26T18:06:06;11.30;99.90
6375;DHT22;35400;45.472;-122.822;2022-10-26T18:08:34;11.40;99.90
6375;DHT22;35400;45.472;-122.822;2022-10-26T18:11:02;11.40;99.90
6375;DHT22;35400;45.472;-122.822;2022-10-26T18:13:30;11.50;99.90
6375;DHT22;35400;45.472;-122.822;2022-10-26T18:16:07;11.40;99.90
6375;DHT22;35400;45.472;-122.822;2022-10-26T18:18:35;11.40;99.90
6375;DHT22;35400;45.472;-122.822;2022-10-26T18:21:04;11.40;99.90
6375;DHT22;35400;45.472;-122.822;2022-10-26T18:23:31;11.50;99.90
6375;DHT22;35400;45.472;-122.822;2022-10-26T18:26:03;11.60;99.90
6375;DHT22;35400;45.472;-122.822;2022-10-26T18:28:31;11.70;99.90
6375;DHT22;35400;45.472;-122.822;2022-10-26T18:31:00;11.80;99.90